createdAt,value
2022-08-03T00:00:44.298Z,65.21
2022-08-03T00:03:15.497Z,65.20
2022-08-03T00:06:04.010Z,65.14
2022-08-03T00:08:33.822Z,65.01
2022-08-03T00:11:09.497Z,65.29
2022-08-03T00:13:38.841Z,64.83
2022-08-03T00:16:08.141Z,65.13
2022-08-03T00:18:39.341Z,65.60
2022-08-03T00:21:08.784Z,65.13
2022-08-03T00:23:51.277Z,64.66
2022-08-03T00:26:21.786Z,64.74
2022-08-03T00:28:51.037Z,64.65
2022-08-03T00:31:23.122Z,65.55
2022-08-03T00:34:12.521Z,65.93
2022-08-03T00:36:42.142Z,66.31
2022-08-03T00:39:11.587Z,66.44
2022-08-03T00:41:40.810Z,66.96
2022-08-03T00:44:12.676Z,67.30
2022-08-03T00:46:42.056Z,67.27
2022-08-03T00:49:13.206Z,67.19
2022-08-03T00:51:45.097Z,68.20
2022-08-03T00:54:14.414Z,67.54
2022-08-03T00:56:59.477Z,67.95
2022-08-03T00:59:29.632Z,68.02
2022-08-03T01:01:59.227Z,68.64
2022-08-03T01:04:30.544Z,68.55
2022-08-03T01:07:10.832Z,68.91
2022-08-03T01:09:48.398Z,69.01
2022-08-03T01:12:24.830Z,69.94
2022-08-03T01:15:00.689Z,70.19
2022-08-03T01:17:38.946Z,69.85
2022-08-03T01:20:15.514Z,70.59
2022-08-03T01:23:02.768Z,70.64
2022-08-03T01:25:42.408Z,70.63
2022-08-03T01:28:30.862Z,70.20
2022-08-03T01:31:08.532Z,71.12
2022-08-03T01:33:41.178Z,71.59
2022-08-03T01:36:15.274Z,71.65
2022-08-03T01:38:48.683Z,72.05
2022-08-03T01:41:21.978Z,72.08
2022-08-03T01:44:26.486Z,71.68
2022-08-03T01:46:48.953Z,71.08
2022-08-03T01:49:19.472Z,71.42
2022-08-03T01:52:04.033Z,72.18
2022-08-03T01:54:38.302Z,72.06
2022-08-03T01:57:09.929Z,71.91
2022-08-03T01:59:41.206Z,71.94
2022-08-03T02:02:32.895Z,71.11
2022-08-03T02:05:10.609Z,70.21
2022-08-03T02:07:42.766Z,70.25
2022-08-03T02:10:15.680Z,69.78
2022-08-03T02:12:50.980Z,70.47
2022-08-03T02:15:22.105Z,70.07
2022-08-03T02:17:55.994Z,69.14
2022-08-03T02:20:26.824Z,68.96
2022-08-03T02:22:56.272Z,69.13
2022-08-03T02:25:25.717Z,69.66
2022-08-03T02:28:03.130Z,70.70
2022-08-03T02:30:38.713Z,70.20
2022-08-03T02:33:14.213Z,69.05
2022-08-03T02:35:45.795Z,68.22
2022-08-03T02:38:16.063Z,67.72
2022-08-03T02:40:46.714Z,67.74
2022-08-03T02:43:29.238Z,67.90
2022-08-03T02:46:21.638Z,68.01
2022-08-03T02:49:42.632Z,68.43
2022-08-03T02:51:58.042Z,67.77
2022-08-03T02:54:28.487Z,67.41
2022-08-03T02:57:08.704Z,67.28
2022-08-03T02:59:39.519Z,67.66
2022-08-03T03:02:11.675Z,67.53
2022-08-03T03:05:52.794Z,67.12
2022-08-03T03:07:51.490Z,67.37
2022-08-03T03:10:23.302Z,67.10
2022-08-03T03:12:54.926Z,67.30
2022-08-03T03:15:24.060Z,66.43
2022-08-03T03:17:55.310Z,66.10
2022-08-03T03:20:30.092Z,65.96
2022-08-03T03:23:01.856Z,65.96
2022-08-03T03:25:32.759Z,66.33
2022-08-03T03:28:02.437Z,66.00
2022-08-03T03:30:32.613Z,65.96
2022-08-03T03:33:02.617Z,65.72
2022-08-03T03:35:37.965Z,65.00
2022-08-03T03:38:09.222Z,64.87
2022-08-03T03:40:39.385Z,64.96
2022-08-03T03:43:10.755Z,64.59
2022-08-03T03:45:42.459Z,64.12
2022-08-03T03:48:11.223Z,63.88
2022-08-03T03:50:42.433Z,62.78
2022-08-03T03:53:15.841Z,62.50
2022-08-03T03:55:59.317Z,62.21
2022-08-03T03:58:34.174Z,61.09
2022-08-03T04:01:03.773Z,60.16
2022-08-03T04:03:32.983Z,60.34
2022-08-03T04:06:17.135Z,59.65
2022-08-03T04:09:00.114Z,59.14
2022-08-03T04:11:32.793Z,58.70
2022-08-03T04:14:08.523Z,59.25
2022-08-03T04:16:43.878Z,58.37
2022-08-03T04:19:22.616Z,57.84
2022-08-03T04:21:59.557Z,57.79
2022-08-03T04:24:35.852Z,57.20
2022-08-03T04:27:09.055Z,57.45
2022-08-03T04:29:48.083Z,57.54
2022-08-03T04:32:19.886Z,56.49
2022-08-03T04:34:49.328Z,55.94
2022-08-03T04:37:27.418Z,55.42
2022-08-03T04:39:59.802Z,55.56
2022-08-03T04:42:42.715Z,55.53
2022-08-03T04:45:15.189Z,54.87
2022-08-03T04:47:45.171Z,54.74
2022-08-03T04:50:20.877Z,54.62
2022-08-03T04:53:09.819Z,54.45
2022-08-03T04:55:39.032Z,54.91
2022-08-03T04:58:08.474Z,54.97
2022-08-03T05:00:37.919Z,55.18
2022-08-03T05:03:20.187Z,54.70
2022-08-03T05:06:01.657Z,55.42
2022-08-03T05:08:33.405Z,55.00
2022-08-03T05:11:03.473Z,55.06
2022-08-03T05:13:32.603Z,54.29
2022-08-03T05:16:01.860Z,54.28
2022-08-03T05:18:31.840Z,54.19
2022-08-03T05:21:01.103Z,55.06
2022-08-03T05:23:30.277Z,54.87
2022-08-03T05:26:01.708Z,55.33
2022-08-03T05:28:30.573Z,54.97
2022-08-03T05:30:59.843Z,55.52
2022-08-03T05:33:29.082Z,54.91
2022-08-03T05:36:03.200Z,54.49
2022-08-03T05:38:35.528Z,55.30
2022-08-03T05:41:20.212Z,55.72
2022-08-03T05:43:53.330Z,56.23
2022-08-03T05:46:23.777Z,56.14
2022-08-03T05:48:53.022Z,56.64
2022-08-03T05:51:24.063Z,56.20
2022-08-03T05:53:53.352Z,57.04
2022-08-03T05:56:27.038Z,57.67
2022-08-03T05:58:56.653Z,56.95
2022-08-03T06:01:26.220Z,57.30
2022-08-03T06:03:55.510Z,56.83
2022-08-03T06:06:25.874Z,56.70
2022-08-03T06:08:57.906Z,56.96
2022-08-03T06:11:29.084Z,56.83
2022-08-03T06:14:00.752Z,56.33
2022-08-03T06:16:29.936Z,55.87
2022-08-03T06:18:58.986Z,55.97
2022-08-03T06:21:28.984Z,55.18
2022-08-03T06:24:00.185Z,55.32
2022-08-03T06:26:35.284Z,55.08
2022-08-03T06:29:04.598Z,55.34
2022-08-03T06:31:37.873Z,54.70
2022-08-03T06:34:33.748Z,54.57
2022-08-03T06:37:01.817Z,54.41
2022-08-03T06:39:31.816Z,53.96
2022-08-03T06:42:03.403Z,54.07
2022-08-03T06:44:32.605Z,53.48
2022-08-03T06:47:02.098Z,52.69
2022-08-03T06:49:31.472Z,52.61
2022-08-03T06:52:05.802Z,51.86
2022-08-03T06:54:37.983Z,52.24
2022-08-03T06:57:11.175Z,51.23
2022-08-03T07:00:08.644Z,51.10
2022-08-03T07:02:30.271Z,50.74
2022-08-03T07:05:00.633Z,49.55
2022-08-03T07:07:30.670Z,50.14
2022-08-03T07:09:59.807Z,50.25
2022-08-03T07:12:31.926Z,50.04
2022-08-03T07:15:03.370Z,50.05
2022-08-03T07:17:37.270Z,49.17
2022-08-03T07:20:08.902Z,48.92
2022-08-03T07:22:38.557Z,48.97
2022-08-03T07:25:09.004Z,47.88
2022-08-03T07:27:40.526Z,47.32
2022-08-03T07:30:11.203Z,48.16
2022-08-03T07:32:50.286Z,47.74
2022-08-03T07:35:24.904Z,46.63
2022-08-03T07:37:55.326Z,44.75
2022-08-03T07:40:25.144Z,44.81
2022-08-03T07:43:03.452Z,43.70
2022-08-03T07:45:33.473Z,42.71
2022-08-03T07:48:02.685Z,42.97
2022-08-03T07:50:32.921Z,43.11
2022-08-03T07:53:02.101Z,42.06
2022-08-03T07:55:31.298Z,42.28
2022-08-03T07:58:08.953Z,42.35
2022-08-03T08:00:38.493Z,41.47
2022-08-03T08:03:07.622Z,40.59
2022-08-03T08:05:36.941Z,39.45
2022-08-03T08:08:06.927Z,39.07
2022-08-03T08:10:37.046Z,38.33
2022-08-03T08:13:08.233Z,38.45
2022-08-03T08:15:37.136Z,38.59
2022-08-03T08:18:12.410Z,38.32
2022-08-03T08:20:43.146Z,38.84
2022-08-03T08:23:32.618Z,38.98
2022-08-03T08:26:04.196Z,38.04
2022-08-03T08:28:35.312Z,37.64
2022-08-03T08:31:04.202Z,37.46
2022-08-03T08:34:01.510Z,36.46
2022-08-03T08:36:23.678Z,35.61
2022-08-03T08:38:52.901Z,35.23
2022-08-03T08:41:22.155Z,36.64
2022-08-03T08:43:58.121Z,36.55
2022-08-03T08:46:30.962Z,36.73
2022-08-03T08:49:04.982Z,36.31
2022-08-03T08:51:54.440Z,35.47
2022-08-03T08:54:27.950Z,35.01
2022-08-03T08:56:59.060Z,34.37
2022-08-03T08:59:47.653Z,35.66
2022-08-03T09:02:18.618Z,34.91
2022-08-03T09:04:48.519Z,34.63
2022-08-03T09:07:20.472Z,34.18
2022-08-03T09:10:11.789Z,34.27
2022-08-03T09:12:42.885Z,34.23
2022-08-03T09:15:30.856Z,33.54
2022-08-03T09:18:02.134Z,32.46
2022-08-03T09:20:33.140Z,32.34
2022-08-03T09:23:19.114Z,33.05
2022-08-03T09:26:01.335Z,32.52
2022-08-03T09:28:57.986Z,32.77
2022-08-03T09:31:36.531Z,32.53
2022-08-03T09:34:07.689Z,33.25
2022-08-03T09:36:38.710Z,33.50
2022-08-03T09:39:10.954Z,32.93
2022-08-03T09:41:41.625Z,32.96
2022-08-03T09:44:24.680Z,32.85
2022-08-03T09:46:58.115Z,33.07
2022-08-03T09:49:27.349Z,33.16
2022-08-03T09:52:31.584Z,33.58
2022-08-03T09:54:52.862Z,33.17
2022-08-03T09:57:24.794Z,33.33
2022-08-03T10:00:04.630Z,32.86
2022-08-03T10:02:44.624Z,32.64
2022-08-03T10:05:17.654Z,32.81
2022-08-03T10:07:50.650Z,33.20
2022-08-03T10:10:29.896Z,33.93
2022-08-03T10:13:01.905Z,34.35
2022-08-03T10:16:21.404Z,33.72
2022-08-03T10:18:22.711Z,33.68
2022-08-03T10:20:53.542Z,34.28
2022-08-03T10:23:24.624Z,33.66
2022-08-03T10:25:59.874Z,33.27
2022-08-03T10:28:37.055Z,33.17
2022-08-03T10:31:09.203Z,32.82
2022-08-03T10:33:50.972Z,32.90
2022-08-03T10:36:26.622Z,32.54
2022-08-03T10:38:58.108Z,31.94
2022-08-03T10:41:32.905Z,31.43
2022-08-03T10:44:07.394Z,31.53
2022-08-03T10:46:44.197Z,31.49
2022-08-03T10:49:25.502Z,31.36
2022-08-03T10:52:13.409Z,31.38
2022-08-03T10:55:09.974Z,30.86
2022-08-03T10:57:49.711Z,31.50
2022-08-03T11:00:21.287Z,32.73
2022-08-03T11:03:05.915Z,32.32
2022-08-03T11:05:40.362Z,31.59
2022-08-03T11:08:27.889Z,31.46
2022-08-03T11:11:00.037Z,31.50
2022-08-03T11:13:33.289Z,31.70
2022-08-03T11:16:07.187Z,31.58
2022-08-03T11:18:37.862Z,31.57
2022-08-03T11:21:09.974Z,31.83
2022-08-03T11:24:03.490Z,32.02
2022-08-03T11:26:35.799Z,31.72
2022-08-03T11:29:30.852Z,32.36
2022-08-03T11:32:00.244Z,31.83
2022-08-03T11:34:30.032Z,32.18
2022-08-03T11:37:31.359Z,31.78
2022-08-03T11:40:03.178Z,31.67
2022-08-03T11:42:47.663Z,31.80
2022-08-03T11:45:19.504Z,31.76
2022-08-03T11:47:51.617Z,32.08
2022-08-03T11:50:22.087Z,32.53
2022-08-03T11:52:53.419Z,33.30
2022-08-03T11:55:25.026Z,32.56
2022-08-03T11:59:12.893Z,32.34
2022-08-03T12:00:51.576Z,32.43
2022-08-03T12:03:22.255Z,32.34
2022-08-03T12:05:54.817Z,32.20
2022-08-03T12:08:34.547Z,31.94
2022-08-03T12:11:08.854Z,31.83
2022-08-03T12:14:08.860Z,32.36
2022-08-03T12:16:30.759Z,32.46
2022-08-03T12:19:01.499Z,32.30
2022-08-03T12:21:31.843Z,32.27
2022-08-03T12:24:05.165Z,33.03
2022-08-03T12:26:58.832Z,33.06
2022-08-03T12:29:29.189Z,33.90
2022-08-03T12:31:58.956Z,33.46
2022-08-03T12:34:47.864Z,33.54
2022-08-03T12:37:22.559Z,33.03
2022-08-03T12:40:01.722Z,34.51
2022-08-03T12:42:35.668Z,33.73
2022-08-03T12:45:25.036Z,33.78
2022-08-03T12:47:57.539Z,34.27
2022-08-03T12:57:45.611Z,34.27
2022-08-03T13:00:21.721Z,34.62
2022-08-03T13:03:41.705Z,34.57
2022-08-03T13:05:53.629Z,34.56
2022-08-03T13:08:24.685Z,34.14
2022-08-03T13:10:53.950Z,34.12
2022-08-03T13:13:42.366Z,34.94
2022-08-03T13:16:15.804Z,35.03
2022-08-03T13:18:48.236Z,35.20
2022-08-03T13:21:18.115Z,34.89
2022-08-03T13:23:48.370Z,35.47
2022-08-03T13:26:17.510Z,34.87
2022-08-03T13:28:48.547Z,34.77
2022-08-03T13:31:17.331Z,34.56
2022-08-03T13:33:46.898Z,34.51
2022-08-03T13:36:21.256Z,33.88
2022-08-03T13:38:50.387Z,34.51
2022-08-03T13:41:19.585Z,34.52
2022-08-03T13:44:26.472Z,34.11
2022-08-03T13:46:51.817Z,34.75
2022-08-03T13:49:21.191Z,34.55
2022-08-03T13:51:50.989Z,34.34
2022-08-03T13:54:20.195Z,33.85
2022-08-03T13:56:52.292Z,33.32
2022-08-03T13:59:24.501Z,33.78
2022-08-03T14:01:55.901Z,33.98
2022-08-03T14:04:25.281Z,34.28
2022-08-03T14:06:54.425Z,35.39
2022-08-03T14:09:23.830Z,34.16
2022-08-03T14:12:06.897Z,35.30
2022-08-03T14:14:39.941Z,35.79
2022-08-03T14:17:09.147Z,34.77
2022-08-03T14:19:44.910Z,33.67
2022-08-03T14:22:24.577Z,34.08
2022-08-03T14:24:53.877Z,35.76
2022-08-03T14:27:23.084Z,35.40
2022-08-03T14:29:56.204Z,36.67
2022-08-03T14:32:25.361Z,37.38
2022-08-03T14:34:54.699Z,36.41
2022-08-03T14:37:23.890Z,35.53
2022-08-03T14:40:00.944Z,35.75
2022-08-03T14:42:31.582Z,34.54
2022-08-03T14:45:09.067Z,35.10
2022-08-03T14:50:34.122Z,35.09
2022-08-03T14:50:41.009Z,34.29
2022-08-03T14:53:13.654Z,34.13
2022-08-03T14:55:50.062Z,34.16
2022-08-03T14:58:20.636Z,35.10
2022-08-03T15:00:53.978Z,35.76
2022-08-03T15:03:25.116Z,35.97
2022-08-03T15:05:55.334Z,34.85
2022-08-03T15:08:26.537Z,34.28
2022-08-03T15:10:56.063Z,35.42
2022-08-03T15:13:26.445Z,35.54
2022-08-03T15:15:57.786Z,35.75
2022-08-03T15:18:30.207Z,34.95
2022-08-03T15:20:59.637Z,35.04
2022-08-03T15:23:30.179Z,35.10
2022-08-03T15:26:29.552Z,35.56
2022-08-03T15:28:48.631Z,35.81
2022-08-03T15:31:23.042Z,39.06
2022-08-03T15:33:52.688Z,39.90
2022-08-03T15:36:22.043Z,37.52
2022-08-03T15:38:51.260Z,37.01
2022-08-03T15:41:20.688Z,37.21
2022-08-03T15:43:52.361Z,39.50
2022-08-03T15:46:30.758Z,38.53
2022-08-03T15:49:00.129Z,39.44
2022-08-03T15:51:29.545Z,40.66
2022-08-03T15:53:58.998Z,38.74
2022-08-03T15:56:28.122Z,40.14
2022-08-03T15:59:10.431Z,38.37
2022-08-03T16:01:44.470Z,37.34
2022-08-03T16:04:13.806Z,37.23
2022-08-03T16:06:43.044Z,39.15
2022-08-03T16:09:23.823Z,38.46
2022-08-03T16:12:01.556Z,39.19
2022-08-03T16:14:32.133Z,38.96
2022-08-03T16:17:09.618Z,39.53
2022-08-03T16:19:38.775Z,40.39
2022-08-03T16:22:08.353Z,39.11
2022-08-03T16:24:39.745Z,38.68
2022-08-03T16:27:36.744Z,39.38
2022-08-03T16:29:58.645Z,38.99
2022-08-03T16:32:29.997Z,39.85
2022-08-03T16:34:59.172Z,40.00
2022-08-03T16:37:50.618Z,40.75
2022-08-03T16:40:19.628Z,40.21
2022-08-03T16:42:51.513Z,39.92
2022-08-03T16:45:21.307Z,41.61
2022-08-03T16:48:01.796Z,41.60
2022-08-03T16:50:37.186Z,42.59
2022-08-03T16:53:09.191Z,42.97
2022-08-03T16:55:48.837Z,43.25
2022-08-03T16:58:24.321Z,43.07
2022-08-03T17:01:10.796Z,43.82
2022-08-03T17:04:01.475Z,43.68
2022-08-03T17:06:34.499Z,43.68
2022-08-03T17:09:08.320Z,44.00
2022-08-03T17:11:46.854Z,43.65
2022-08-03T17:14:21.918Z,43.33
2022-08-03T17:16:54.249Z,43.44
2022-08-03T17:19:26.417Z,43.68
2022-08-03T17:22:01.793Z,44.25
2022-08-03T17:24:36.931Z,44.04
2022-08-03T17:28:42.150Z,44.70
2022-08-03T17:30:09.010Z,44.55
2022-08-03T17:32:42.585Z,44.75
2022-08-03T17:35:15.852Z,44.61
2022-08-03T17:38:13.752Z,44.78
2022-08-03T17:40:50.269Z,44.81
2022-08-03T17:44:12.981Z,45.03
2022-08-03T17:46:12.276Z,45.13
2022-08-03T17:48:42.226Z,45.26
2022-08-03T17:51:23.637Z,45.70
2022-08-03T17:53:55.657Z,44.60
2022-08-03T17:56:45.125Z,45.60
2022-08-03T17:59:50.553Z,46.47
2022-08-03T18:02:38.691Z,46.69
2022-08-03T18:05:21.876Z,46.28
2022-08-03T18:08:00.927Z,46.92
2022-08-03T18:10:38.312Z,46.96
2022-08-03T18:13:24.877Z,46.94
2022-08-03T18:16:04.638Z,46.91
2022-08-03T18:18:37.631Z,47.62
2022-08-03T18:21:17.044Z,47.63
2022-08-03T18:23:51.853Z,47.65
2022-08-03T18:26:22.327Z,48.02
2022-08-03T18:28:54.546Z,48.00
2022-08-03T18:31:59.872Z,48.26
2022-08-03T18:34:33.912Z,48.07
2022-08-03T18:37:07.677Z,47.70
2022-08-03T18:39:50.007Z,48.15
2022-08-03T18:42:25.904Z,48.15
2022-08-03T18:44:57.111Z,48.56
2022-08-03T18:47:52.624Z,48.15
2022-08-03T18:50:30.638Z,48.49
2022-08-03T18:53:16.380Z,48.43
2022-08-03T18:56:01.236Z,48.74
2022-08-03T18:58:40.607Z,49.33
2022-08-03T19:02:00.322Z,49.08
2022-08-03T19:04:14.168Z,48.90
2022-08-03T19:06:49.105Z,49.39
2022-08-03T19:09:27.897Z,49.34
2022-08-03T19:12:13.189Z,50.45
2022-08-03T19:14:55.858Z,50.20
2022-08-03T19:17:30.335Z,50.84
2022-08-03T19:20:02.784Z,51.32
2022-08-03T19:22:34.415Z,51.50
2022-08-03T19:25:07.124Z,51.96
2022-08-03T19:27:46.662Z,52.20
2022-08-03T19:30:32.320Z,51.80
2022-08-03T19:33:02.545Z,51.80
2022-08-03T19:35:52.081Z,51.64
2022-08-03T19:38:28.186Z,51.89
2022-08-03T19:41:03.228Z,52.29
2022-08-03T19:46:31.100Z,51.98
2022-08-03T19:49:04.958Z,52.26
2022-08-03T19:54:52.970Z,51.95
2022-08-03T19:57:28.822Z,52.32
2022-08-03T20:00:03.410Z,52.32
2022-08-03T20:02:35.063Z,51.64
2022-08-03T20:05:04.701Z,51.39
2022-08-03T20:07:47.808Z,51.57
2022-08-03T20:10:19.023Z,51.53
2022-08-03T20:12:49.577Z,51.95
2022-08-03T20:15:31.731Z,52.13
2022-08-03T20:18:01.583Z,52.67
2022-08-03T20:20:34.741Z,52.96
2022-08-03T20:23:08.491Z,53.16
2022-08-03T20:25:55.722Z,52.94
2022-08-03T20:28:32.337Z,53.25
2022-08-03T20:31:04.856Z,53.52
2022-08-03T20:33:46.547Z,53.33
2022-08-03T20:36:19.166Z,53.48
2022-08-03T20:38:49.534Z,54.01
2022-08-03T20:41:21.630Z,54.93
2022-08-03T20:43:50.985Z,54.52
2022-08-03T20:46:31.132Z,55.15
2022-08-03T20:49:07.334Z,55.16
2022-08-03T20:51:50.471Z,54.37
2022-08-03T20:54:31.353Z,55.61
2022-08-03T20:57:04.075Z,55.49
2022-08-03T20:59:50.255Z,55.69
2022-08-03T21:02:30.231Z,55.25
2022-08-03T21:05:08.190Z,55.67
2022-08-03T21:08:03.842Z,55.96
2022-08-03T21:10:37.837Z,56.02
2022-08-03T21:13:03.089Z,51.67
2022-08-03T21:13:17.434Z,56.67
2022-08-03T21:16:06.099Z,57.38
2022-08-03T21:18:45.448Z,56.10
2022-08-03T21:21:17.108Z,57.30
2022-08-03T21:23:50.287Z,57.28
2022-08-03T21:26:20.758Z,57.49
2022-08-03T21:28:51.048Z,57.31
2022-08-03T21:31:25.592Z,57.88
2022-08-03T21:34:00.097Z,57.64
2022-08-03T21:36:31.194Z,57.96
2022-08-03T21:39:01.144Z,58.17
2022-08-03T21:41:33.724Z,58.66
2022-08-03T21:44:05.840Z,58.69
2022-08-03T21:46:37.538Z,59.01
2022-08-03T21:50:05.167Z,59.19
2022-08-03T21:52:06.536Z,59.35
2022-08-03T21:54:38.334Z,59.14
2022-08-03T21:57:15.909Z,59.21
2022-08-03T21:59:53.499Z,59.57
2022-08-03T22:02:27.423Z,59.59
2022-08-03T22:04:59.257Z,59.90
2022-08-03T22:07:30.965Z,59.97
2022-08-03T22:10:02.360Z,60.05
2022-08-03T22:12:33.236Z,60.60
2022-08-03T22:15:03.838Z,60.20
2022-08-03T22:17:55.106Z,60.16
2022-08-03T22:20:28.524Z,60.27
2022-08-03T22:23:01.732Z,59.95
2022-08-03T22:25:33.550Z,60.04
2022-08-03T22:28:04.544Z,60.28
2022-08-03T22:30:34.743Z,59.83
2022-08-03T22:33:10.967Z,60.05
2022-08-03T22:35:47.765Z,60.68
2022-08-03T22:38:20.132Z,60.77
2022-08-03T22:40:51.383Z,60.65
2022-08-03T22:43:24.590Z,60.91
2022-08-03T22:46:09.066Z,60.73
2022-08-03T22:48:41.625Z,60.26
2022-08-03T22:51:12.989Z,60.96
2022-08-03T22:53:42.487Z,60.76
2022-08-03T22:56:12.047Z,61.50
2022-08-03T22:58:41.282Z,61.49
2022-08-03T23:01:13.118Z,61.44
2022-08-03T23:04:00.956Z,61.97
2022-08-03T23:06:37.303Z,61.98
2022-08-03T23:09:08.789Z,62.11
2022-08-03T23:11:43.002Z,62.30
2022-08-03T23:14:17.201Z,61.58
2022-08-03T23:16:50.002Z,61.27
2022-08-03T23:19:25.584Z,61.78
2022-08-03T23:22:03.152Z,61.66
2022-08-03T23:24:37.666Z,62.71
2022-08-03T23:27:08.773Z,62.61
2022-08-03T23:29:39.384Z,62.54
2022-08-03T23:32:10.480Z,62.81
2022-08-03T23:34:54.466Z,63.11
2022-08-03T23:37:29.320Z,62.66
2022-08-03T23:40:00.344Z,62.53
2022-08-03T23:42:30.456Z,62.97
2022-08-03T23:45:05.723Z,63.37
2022-08-03T23:47:47.456Z,62.98
2022-08-03T23:50:17.817Z,63.62
2022-08-03T23:52:59.681Z,63.91
2022-08-03T23:55:44.765Z,63.88
2022-08-03T23:58:24.994Z,63.38
